Atwood, Illinois
Current Conditions -  °F | °C
As of 9:53 PM on Wednesday 17 Dec 2014 (Local Time) from KCMI Reporting Station
Overcast Overcast  
Wind Chill: 19°   Ceiling: 1900
Heat Index: 25°   Visibility: 10mi
Dew Point: 18°   Wind: 5mph
Humidity: 75%   Direction: 340°NNW
Pressure: 30.29"   Gusts: NA
Location:  39.8°N, 88.46°W
Report Text: KCMI 180353Z 34004KT 10SM OVC019 M04/M08 A3029 RMK AO2 SLP268 T10391078
Loading
Personal Weather Stations






























Interactive Weather Map New forecast layout! Learn more

10-Day Weather Forecast

Advertisements
Track Severe Weather on mobile